Terminal Aerodrome Forecast
Issued by NWS Jackson, MS

Home | Current Version | Previous Version | Text Only | Print | Product List | Glossary On
Versions: 1 2 3 4 5 6 7 8 9 10 11 12 13 14 15 16 17
000
FTUS44 KJAN 281339 AAA
TAFHBG
TAF AMD
KHBG 281339Z 2814/2912 18003KT P6SM SCT015 BKN025
     FM281500 22005KT P6SM OVC030
     FM281800 20007KT P6SM OVC050
     FM290800 17003KT 5SM BR BKN007=

USA.gov is the U.S. government's official web portal to all federal, state and local government web resources and services.